createdAt,value
2023-05-14T00:01:26.642Z,67.24
2023-05-14T00:03:56.783Z,67.39
2023-05-14T00:06:29.378Z,67.02
2023-05-14T00:08:59.374Z,67.27
2023-05-14T00:11:29.438Z,67.06
2023-05-14T00:13:59.378Z,67.52
2023-05-14T00:16:29.497Z,67.96
2023-05-14T00:18:59.515Z,67.65
2023-05-14T00:21:32.087Z,67.83
2023-05-14T00:24:02.018Z,67.36
2023-05-14T00:26:31.997Z,67.71
2023-05-14T00:29:01.972Z,68.63
2023-05-14T00:31:31.964Z,68.12
2023-05-14T00:34:01.948Z,68.26
2023-05-14T00:36:34.619Z,68.34
2023-05-14T00:39:04.800Z,68.03
2023-05-14T00:41:34.792Z,67.84
2023-05-14T00:44:05.046Z,68.02
2023-05-14T00:46:35.205Z,67.51
2023-05-14T00:49:05.579Z,67.82
2023-05-14T00:51:38.293Z,67.91
2023-05-14T00:54:09.183Z,68.18
2023-05-14T00:56:39.533Z,67.65
2023-05-14T00:59:09.626Z,68.20
2023-05-14T01:01:40.181Z,68.06
2023-05-14T01:04:12.285Z,68.06
2023-05-14T01:06:57.027Z,68.29
2023-05-14T01:09:34.718Z,68.66
2023-05-14T01:12:11.618Z,68.71
2023-05-14T01:14:52.252Z,69.24
2023-05-14T01:17:25.790Z,68.22
2023-05-14T01:19:58.288Z,68.24
2023-05-14T01:22:31.371Z,68.54
2023-05-14T01:25:01.300Z,68.12
2023-05-14T01:27:38.726Z,68.30
2023-05-14T01:30:16.745Z,68.97
2023-05-14T01:32:51.238Z,68.52
2023-05-14T01:35:21.820Z,68.82
2023-05-14T01:37:58.160Z,68.75
2023-05-14T01:40:28.972Z,69.28
2023-05-14T01:43:00.347Z,69.90
2023-05-14T01:45:30.360Z,69.41
2023-05-14T01:48:01.027Z,69.69
2023-05-14T01:50:31.055Z,69.94
2023-05-14T01:53:03.573Z,69.85
2023-05-14T01:55:33.509Z,69.88
2023-05-14T01:58:03.631Z,69.85
2023-05-14T02:00:33.647Z,70.31
2023-05-14T02:03:03.729Z,70.62
2023-05-14T02:05:34.011Z,70.91
2023-05-14T02:08:06.849Z,71.05
2023-05-14T02:10:36.808Z,71.14
2023-05-14T02:13:06.834Z,72.11
2023-05-14T02:15:36.802Z,72.30
2023-05-14T02:18:06.964Z,73.07
2023-05-14T02:20:36.914Z,72.42
2023-05-14T02:23:09.683Z,72.99
2023-05-14T02:25:39.686Z,72.92
2023-05-14T02:28:09.824Z,73.29
2023-05-14T02:30:40.249Z,73.39
2023-05-14T02:33:10.366Z,73.69
2023-05-14T02:35:40.355Z,73.97
2023-05-14T02:38:12.849Z,73.33
2023-05-14T02:40:42.818Z,73.46
2023-05-14T02:43:12.760Z,73.73
2023-05-14T02:45:43.125Z,73.42
2023-05-14T02:48:13.190Z,74.05
2023-05-14T02:50:43.151Z,73.63
2023-05-14T02:53:15.747Z,73.73
2023-05-14T02:55:45.628Z,73.42
2023-05-14T02:58:15.608Z,73.70
2023-05-14T03:00:45.738Z,73.33
2023-05-14T03:03:16.327Z,73.23
2023-05-14T03:05:46.356Z,73.52
2023-05-14T03:08:19.169Z,73.63
2023-05-14T03:10:49.192Z,73.38
2023-05-14T03:13:20.903Z,73.85
2023-05-14T03:15:55.077Z,73.27
2023-05-14T03:18:25.653Z,73.29
2023-05-14T03:20:55.604Z,73.41
2023-05-14T03:23:28.300Z,73.26
2023-05-14T03:25:58.268Z,73.59
2023-05-14T03:28:28.257Z,73.60
2023-05-14T03:30:58.383Z,74.06
2023-05-14T03:33:28.462Z,73.11
2023-05-14T03:35:58.405Z,73.00
2023-05-14T03:38:30.962Z,73.36
2023-05-14T03:41:00.952Z,73.24
2023-05-14T03:43:30.944Z,72.70
2023-05-14T03:46:00.928Z,72.87
2023-05-14T03:48:31.136Z,72.53
2023-05-14T03:51:01.322Z,72.36
2023-05-14T03:53:34.235Z,72.40
2023-05-14T03:56:04.171Z,73.17
2023-05-14T03:58:34.064Z,73.24
2023-05-14T04:01:04.181Z,72.83
2023-05-14T04:03:34.406Z,72.82
2023-05-14T04:06:04.762Z,73.06
2023-05-14T04:08:37.308Z,73.21
2023-05-14T04:11:07.318Z,73.29
2023-05-14T04:13:37.322Z,73.19
2023-05-14T04:16:07.991Z,72.99
2023-05-14T04:18:38.611Z,72.48
2023-05-14T04:21:08.766Z,72.64
2023-05-14T04:23:41.298Z,73.44
2023-05-14T04:26:11.201Z,73.36
2023-05-14T04:28:41.083Z,72.91
2023-05-14T04:31:11.026Z,72.81
2023-05-14T04:33:41.126Z,72.60
2023-05-14T04:36:11.588Z,72.45
2023-05-14T04:38:44.101Z,72.43
2023-05-14T04:41:13.985Z,72.06
2023-05-14T04:43:43.895Z,71.69
2023-05-14T04:46:14.090Z,71.83
2023-05-14T04:48:44.036Z,71.97
2023-05-14T04:51:13.969Z,71.86
2023-05-14T04:53:46.616Z,71.24
2023-05-14T04:56:16.558Z,71.14
2023-05-14T04:58:46.581Z,71.06
2023-05-14T05:01:16.682Z,71.30
2023-05-14T05:03:46.649Z,70.94
2023-05-14T05:06:16.692Z,70.66
2023-05-14T05:08:49.270Z,71.11
2023-05-14T05:11:19.142Z,70.56
2023-05-14T05:13:49.079Z,70.27
2023-05-14T05:16:19.172Z,70.11
2023-05-14T05:18:49.193Z,70.47
2023-05-14T05:21:19.172Z,70.16
2023-05-14T05:23:51.843Z,69.42
2023-05-14T05:26:22.226Z,69.68
2023-05-14T05:28:52.216Z,69.83
2023-05-14T05:31:22.370Z,69.09
2023-05-14T05:33:52.357Z,69.57
2023-05-14T05:36:22.216Z,68.82
2023-05-14T05:38:54.672Z,68.19
2023-05-14T05:41:24.967Z,68.40
2023-05-14T05:43:54.976Z,68.09
2023-05-14T05:46:25.081Z,67.93
2023-05-14T05:48:55.758Z,67.73
2023-05-14T05:51:25.824Z,67.58
2023-05-14T05:53:58.385Z,67.35
2023-05-14T05:56:28.337Z,66.98
2023-05-14T05:58:58.361Z,66.54
2023-05-14T06:01:28.651Z,66.29
2023-05-14T06:03:58.799Z,65.43
2023-05-14T06:06:28.759Z,65.81
2023-05-14T06:09:02.094Z,65.46
2023-05-14T06:11:32.054Z,65.97
2023-05-14T06:14:02.068Z,65.70
2023-05-14T06:16:32.098Z,65.42
2023-05-14T06:19:05.038Z,65.55
2023-05-14T06:21:35.305Z,64.88
2023-05-14T06:24:08.574Z,64.20
2023-05-14T06:26:38.468Z,63.79
2023-05-14T06:29:08.550Z,62.91
2023-05-14T06:31:38.547Z,62.76
2023-05-14T06:34:09.364Z,63.47
2023-05-14T06:36:39.281Z,63.46
2023-05-14T06:39:12.646Z,63.37
2023-05-14T06:41:42.564Z,63.25
2023-05-14T06:44:17.624Z,62.13
2023-05-14T06:46:47.541Z,62.68
2023-05-14T06:49:17.524Z,62.27
2023-05-14T06:51:47.923Z,62.54
2023-05-14T06:54:20.642Z,62.23
2023-05-14T06:56:50.771Z,61.98
2023-05-14T06:59:20.754Z,62.41
2023-05-14T07:01:50.794Z,62.78
2023-05-14T07:04:20.819Z,62.62
2023-05-14T07:06:50.924Z,63.02
2023-05-14T07:09:23.425Z,63.90
2023-05-14T07:11:53.407Z,63.26
2023-05-14T07:14:23.401Z,63.29
2023-05-14T07:16:53.375Z,63.21
2023-05-14T07:19:23.338Z,62.65
2023-05-14T07:21:53.243Z,62.06
2023-05-14T07:24:26.084Z,61.82
2023-05-14T07:26:57.413Z,61.96
2023-05-14T07:29:28.455Z,62.03
2023-05-14T07:31:58.422Z,62.00
2023-05-14T07:34:28.382Z,62.06
2023-05-14T07:36:58.750Z,62.57
2023-05-14T07:39:31.417Z,61.50
2023-05-14T07:42:01.329Z,61.92
2023-05-14T07:44:31.296Z,62.00
2023-05-14T07:47:01.361Z,61.91
2023-05-14T07:49:31.325Z,61.95
2023-05-14T07:52:01.231Z,61.31
2023-05-14T07:54:33.731Z,61.38
2023-05-14T07:57:03.677Z,61.41
2023-05-14T07:59:33.682Z,62.72
2023-05-14T08:02:03.675Z,63.50
2023-05-14T08:04:33.898Z,62.54
2023-05-14T08:07:04.092Z,61.44
2023-05-14T08:09:36.709Z,61.44
2023-05-14T08:12:07.697Z,61.37
2023-05-14T08:14:37.706Z,60.98
2023-05-14T08:17:07.897Z,61.53
2023-05-14T08:19:37.981Z,60.97
2023-05-14T08:22:08.254Z,61.60
2023-05-14T08:24:42.968Z,60.95
2023-05-14T08:27:12.904Z,60.60
2023-05-14T08:29:42.935Z,61.80
2023-05-14T08:32:22.869Z,59.81
2023-05-14T08:34:54.124Z,59.24
2023-05-14T08:37:24.161Z,59.37
2023-05-14T08:39:56.744Z,59.68
2023-05-14T08:42:28.568Z,58.81
2023-05-14T08:45:04.487Z,58.69
2023-05-14T08:47:34.943Z,57.55
2023-05-14T08:50:07.516Z,57.60
2023-05-14T08:52:38.200Z,57.74
2023-05-14T08:55:12.589Z,56.78
2023-05-14T08:57:42.917Z,56.31
2023-05-14T09:00:15.562Z,56.31
2023-05-14T09:02:49.357Z,55.28
2023-05-14T09:05:21.783Z,53.15
2023-05-14T09:07:51.789Z,51.91
2023-05-14T09:10:24.705Z,52.36
2023-05-14T09:12:55.006Z,52.28
2023-05-14T09:15:26.246Z,51.63
2023-05-14T09:17:56.904Z,52.38
2023-05-14T09:20:28.819Z,51.58
2023-05-14T09:23:00.130Z,51.07
2023-05-14T09:25:34.761Z,50.99
2023-05-14T09:28:09.977Z,49.78
2023-05-14T09:30:40.786Z,50.68
2023-05-14T09:33:11.036Z,50.66
2023-05-14T09:35:43.519Z,50.54
2023-05-14T09:38:14.444Z,49.76
2023-05-14T09:40:48.700Z,49.22
2023-05-14T09:43:18.805Z,47.76
2023-05-14T09:45:48.768Z,47.72
2023-05-14T09:48:19.111Z,47.83
2023-05-14T09:50:49.922Z,48.55
2023-05-14T09:53:20.023Z,46.73
2023-05-14T09:55:52.554Z,47.11
2023-05-14T09:58:22.636Z,47.48
2023-05-14T10:00:54.636Z,48.73
2023-05-14T10:03:28.734Z,48.19
2023-05-14T10:06:03.772Z,46.67
2023-05-14T10:08:37.545Z,46.99
2023-05-14T10:11:18.196Z,48.07
2023-05-14T10:13:56.984Z,47.24
2023-05-14T10:16:31.993Z,48.96
2023-05-14T10:19:09.025Z,48.46
2023-05-14T10:21:41.285Z,48.04
2023-05-14T10:24:13.727Z,47.92
2023-05-14T10:26:46.526Z,49.00
2023-05-14T10:29:16.475Z,49.21
2023-05-14T10:31:49.755Z,48.68
2023-05-14T10:34:37.387Z,47.14
2023-05-14T10:37:10.173Z,46.65
2023-05-14T10:39:45.192Z,47.23
2023-05-14T10:42:20.913Z,46.61
2023-05-14T10:44:56.139Z,47.86
2023-05-14T10:47:26.252Z,47.38
2023-05-14T10:49:59.208Z,47.08
2023-05-14T10:52:29.686Z,46.39
2023-05-14T10:55:03.493Z,45.07
2023-05-14T10:57:40.741Z,45.82
2023-05-14T11:00:12.711Z,46.28
2023-05-14T11:05:17.818Z,47.14
2023-05-14T11:07:50.452Z,46.21
2023-05-14T11:10:23.379Z,46.43
2023-05-14T11:12:56.264Z,45.57
2023-05-14T11:15:29.253Z,43.74
2023-05-14T11:17:59.780Z,43.97
2023-05-14T11:20:29.872Z,44.22
2023-05-14T11:23:00.516Z,44.04
2023-05-14T11:25:30.819Z,43.96
2023-05-14T11:28:03.511Z,43.55
2023-05-14T11:30:34.426Z,42.44
2023-05-14T11:33:04.788Z,41.85
2023-05-14T11:35:35.071Z,42.61
2023-05-14T11:38:06.426Z,42.91
2023-05-14T11:40:37.484Z,41.65
2023-05-14T11:43:10.557Z,42.17
2023-05-14T11:45:40.817Z,41.16
2023-05-14T11:48:18.206Z,40.55
2023-05-14T11:50:49.868Z,42.47
2023-05-14T11:53:21.906Z,41.44
2023-05-14T11:55:52.175Z,41.29
2023-05-14T11:58:25.228Z,40.23
2023-05-14T12:00:58.402Z,39.89
2023-05-14T12:03:30.738Z,38.59
2023-05-14T12:06:02.889Z,38.84
2023-05-14T12:08:34.509Z,39.18
2023-05-14T12:11:05.196Z,38.21
2023-05-14T12:13:40.125Z,38.40
2023-05-14T12:16:10.388Z,38.17
2023-05-14T12:18:40.825Z,37.92
2023-05-14T12:21:12.232Z,37.50
2023-05-14T12:23:42.649Z,37.33
2023-05-14T12:26:12.816Z,35.69
2023-05-14T12:28:45.617Z,34.87
2023-05-14T12:31:15.663Z,36.38
2023-05-14T12:33:45.981Z,36.54
2023-05-14T12:36:21.938Z,36.90
2023-05-14T12:38:53.446Z,36.33
2023-05-14T12:41:23.554Z,37.66
2023-05-14T12:43:56.305Z,38.32
2023-05-14T12:46:26.453Z,38.11
2023-05-14T12:48:57.025Z,37.34
2023-05-14T12:51:27.231Z,36.43
2023-05-14T12:53:57.194Z,33.96
2023-05-14T12:56:28.544Z,34.42
2023-05-14T12:59:01.281Z,35.48
2023-05-14T13:01:31.321Z,35.73
2023-05-14T13:04:01.422Z,33.59
2023-05-14T13:06:31.857Z,36.06
2023-05-14T13:09:02.601Z,31.58
2023-05-14T13:11:32.607Z,34.78
2023-05-14T13:14:05.521Z,33.93
2023-05-14T13:16:35.603Z,31.93
2023-05-14T13:19:05.701Z,30.81
2023-05-14T13:21:35.799Z,29.91
2023-05-14T13:24:05.885Z,31.74
2023-05-14T13:26:35.993Z,32.29
2023-05-14T13:29:08.538Z,32.43
2023-05-14T13:31:38.597Z,34.58
2023-05-14T13:34:09.046Z,34.03
2023-05-14T13:36:39.837Z,34.18
2023-05-14T13:39:10.990Z,32.14
2023-05-14T13:41:41.015Z,30.15
2023-05-14T13:44:13.608Z,35.26
2023-05-14T13:46:43.694Z,35.25
2023-05-14T13:49:14.050Z,31.69
2023-05-14T13:51:44.319Z,29.93
2023-05-14T13:54:14.636Z,30.22
2023-05-14T13:56:44.640Z,26.11
2023-05-14T13:59:17.550Z,24.83
2023-05-14T14:01:48.286Z,24.89
2023-05-14T14:04:20.075Z,26.16
2023-05-14T14:06:50.080Z,26.54
2023-05-14T14:09:20.002Z,25.01
2023-05-14T14:11:50.875Z,25.38
2023-05-14T14:14:23.418Z,24.50
2023-05-14T14:16:53.301Z,22.98
2023-05-14T14:19:23.982Z,23.18
2023-05-14T14:21:54.156Z,24.49
2023-05-14T14:24:24.042Z,19.93
2023-05-14T14:26:53.987Z,19.67
2023-05-14T14:29:26.574Z,23.20
2023-05-14T14:31:57.185Z,25.97
2023-05-14T14:34:27.240Z,27.10
2023-05-14T14:36:57.276Z,29.68
2023-05-14T14:39:27.404Z,31.00
2023-05-14T14:41:57.777Z,31.71
2023-05-14T14:44:30.412Z,28.84
2023-05-14T14:47:00.441Z,29.85
2023-05-14T14:49:31.472Z,31.83
2023-05-14T14:52:01.471Z,33.18
2023-05-14T14:54:31.427Z,34.60
2023-05-14T14:57:01.399Z,30.74
2023-05-14T14:59:33.998Z,22.34
2023-05-14T15:02:03.955Z,29.64
2023-05-14T15:04:34.935Z,32.64
2023-05-14T15:07:05.020Z,34.18
2023-05-14T15:09:35.344Z,35.01
2023-05-14T15:12:05.437Z,35.50
2023-05-14T15:14:38.146Z,34.03
2023-05-14T15:17:08.235Z,26.41
2023-05-14T15:19:38.281Z,19.92
2023-05-14T15:22:08.377Z,19.92
2023-05-14T15:24:38.466Z,19.60
2023-05-14T15:27:08.894Z,20.44
2023-05-14T15:29:41.583Z,17.21
2023-05-14T15:32:11.770Z,19.94
2023-05-14T15:34:42.038Z,20.08
2023-05-14T15:37:11.989Z,19.24
2023-05-14T15:39:41.909Z,20.17
2023-05-14T15:42:12.075Z,18.95
2023-05-14T15:44:44.729Z,18.67
2023-05-14T15:47:14.823Z,19.64
2023-05-14T15:49:44.785Z,24.22
2023-05-14T15:52:14.916Z,27.52
2023-05-14T15:54:45.032Z,29.40
2023-05-14T15:57:15.432Z,30.74
2023-05-14T15:59:49.890Z,31.51
2023-05-14T16:02:20.255Z,27.53
2023-05-14T16:04:50.326Z,30.19
2023-05-14T16:07:20.313Z,30.14
2023-05-14T16:09:50.371Z,33.98
2023-05-14T16:12:20.333Z,36.44
2023-05-14T16:14:53.055Z,37.63
2023-05-14T16:17:23.132Z,38.66
2023-05-14T16:19:54.659Z,39.20
2023-05-14T16:22:26.277Z,40.77
2023-05-14T16:24:56.416Z,40.09
2023-05-14T16:27:27.240Z,40.90
2023-05-14T16:29:59.782Z,39.19
2023-05-14T16:32:29.752Z,40.37
2023-05-14T16:35:01.834Z,40.53
2023-05-14T16:37:32.222Z,41.45
2023-05-14T16:40:02.309Z,41.57
2023-05-14T16:42:32.684Z,35.54
2023-05-14T16:45:05.217Z,32.81
2023-05-14T16:47:36.052Z,31.52
2023-05-14T16:50:06.342Z,30.76
2023-05-14T16:52:36.652Z,31.29
2023-05-14T16:55:07.270Z,34.45
2023-05-14T16:57:37.328Z,37.01
2023-05-14T17:00:12.006Z,37.35
2023-05-14T17:02:42.110Z,34.76
2023-05-14T17:05:12.804Z,35.25
2023-05-14T17:07:42.814Z,36.09
2023-05-14T17:10:13.487Z,35.55
2023-05-14T17:12:43.518Z,34.00
2023-05-14T17:15:16.556Z,32.69
2023-05-14T17:17:46.650Z,33.86
2023-05-14T17:20:17.152Z,36.84
2023-05-14T17:22:47.409Z,37.46
2023-05-14T17:25:18.215Z,38.09
2023-05-14T17:27:48.162Z,38.42
2023-05-14T17:30:20.793Z,39.79
2023-05-14T17:32:51.322Z,40.49
2023-05-14T17:35:21.453Z,40.21
2023-05-14T17:37:51.493Z,40.81
2023-05-14T17:40:21.582Z,41.37
2023-05-14T17:42:51.579Z,41.74
2023-05-14T17:45:24.504Z,42.73
2023-05-14T17:47:54.867Z,43.08
2023-05-14T17:50:24.828Z,44.13
2023-05-14T17:52:56.719Z,44.06
2023-05-14T17:55:27.039Z,43.45
2023-05-14T17:57:57.050Z,44.23
2023-05-14T18:00:29.569Z,44.68
2023-05-14T18:02:59.622Z,45.90
2023-05-14T18:05:30.049Z,46.13
2023-05-14T18:08:00.541Z,46.11
2023-05-14T18:10:31.737Z,46.54
2023-05-14T18:13:01.942Z,46.72
2023-05-14T18:15:34.868Z,45.67
2023-05-14T18:18:05.087Z,45.52
2023-05-14T18:20:35.680Z,46.77
2023-05-14T18:23:05.752Z,46.58
2023-05-14T18:25:36.075Z,47.43
2023-05-14T18:28:06.270Z,46.76
2023-05-14T18:30:38.892Z,47.15
2023-05-14T18:33:08.902Z,47.56
2023-05-14T18:35:39.017Z,47.77
2023-05-14T18:38:09.125Z,48.21
2023-05-14T18:40:39.467Z,47.16
2023-05-14T18:43:09.441Z,47.51
2023-05-14T18:45:42.041Z,47.93
2023-05-14T18:48:12.815Z,48.98
2023-05-14T18:50:43.224Z,50.00
2023-05-14T18:53:13.226Z,50.44
2023-05-14T18:55:43.318Z,50.35
2023-05-14T18:58:14.581Z,50.00
2023-05-14T19:00:47.214Z,51.10
2023-05-14T19:03:17.452Z,50.61
2023-05-14T19:05:47.609Z,50.44
2023-05-14T19:08:18.648Z,51.21
2023-05-14T19:10:48.684Z,51.16
2023-05-14T19:13:18.754Z,51.49
2023-05-14T19:15:51.746Z,51.88
2023-05-14T19:18:21.785Z,51.61
2023-05-14T19:20:52.112Z,52.19
2023-05-14T19:23:22.175Z,52.30
2023-05-14T19:25:52.335Z,52.35
2023-05-14T19:28:22.725Z,52.98
2023-05-14T19:30:57.376Z,52.97
2023-05-14T19:33:28.134Z,52.58
2023-05-14T19:35:58.943Z,53.24
2023-05-14T19:38:29.792Z,53.77
2023-05-14T19:40:59.869Z,54.62
2023-05-14T19:43:29.874Z,54.88
2023-05-14T19:46:03.363Z,54.61
2023-05-14T19:48:33.925Z,56.12
2023-05-14T19:51:04.230Z,56.15
2023-05-14T19:53:34.386Z,56.05
2023-05-14T19:56:04.857Z,56.53
2023-05-14T19:58:35.077Z,56.14
2023-05-14T20:01:08.048Z,57.33
2023-05-14T20:03:38.190Z,56.91
2023-05-14T20:06:08.557Z,57.68
2023-05-14T20:08:38.696Z,57.68
2023-05-14T20:11:08.874Z,57.94
2023-05-14T20:13:39.071Z,57.79
2023-05-14T20:16:13.771Z,57.75
2023-05-14T20:18:44.239Z,57.89
2023-05-14T20:21:15.010Z,58.46
2023-05-14T20:23:45.275Z,57.60
2023-05-14T20:26:15.661Z,57.77
2023-05-14T20:28:46.271Z,58.60
2023-05-14T20:31:19.423Z,58.85
2023-05-14T20:33:49.816Z,59.34
2023-05-14T20:36:20.183Z,59.61
2023-05-14T20:38:50.515Z,60.66
2023-05-14T20:41:21.194Z,60.52
2023-05-14T20:43:51.484Z,60.77
2023-05-14T20:46:24.465Z,61.12
2023-05-14T20:48:57.243Z,60.71
2023-05-14T20:51:27.688Z,62.26
2023-05-14T20:53:58.165Z,61.42
2023-05-14T20:56:29.152Z,61.51
2023-05-14T20:58:59.454Z,61.97
2023-05-14T21:01:32.315Z,61.79
2023-05-14T21:04:02.757Z,62.19
2023-05-14T21:06:33.208Z,62.78
2023-05-14T21:09:03.498Z,62.47
2023-05-14T21:11:33.782Z,62.13
2023-05-14T21:14:03.991Z,63.12
2023-05-14T21:16:37.141Z,62.41
2023-05-14T21:19:07.664Z,63.14
2023-05-14T21:21:38.232Z,63.45
2023-05-14T21:24:09.148Z,63.87
2023-05-14T21:26:41.550Z,64.01
2023-05-14T21:29:11.842Z,64.22
2023-05-14T21:31:44.894Z,64.42
2023-05-14T21:34:15.013Z,63.61
2023-05-14T21:36:45.220Z,64.32
2023-05-14T21:39:15.399Z,64.36
2023-05-14T21:41:45.382Z,64.10
2023-05-14T21:44:15.507Z,64.34
2023-05-14T21:46:48.113Z,64.82
2023-05-14T21:49:18.032Z,65.10
2023-05-14T21:51:53.041Z,65.15
2023-05-14T21:54:23.008Z,65.02
2023-05-14T21:56:53.018Z,64.15
2023-05-14T21:59:22.939Z,64.53
2023-05-14T22:02:06.927Z,64.00
2023-05-14T22:04:37.953Z,64.21
2023-05-14T22:07:07.958Z,63.70
2023-05-14T22:09:37.856Z,64.07
2023-05-14T22:12:08.915Z,64.27
2023-05-14T22:14:38.899Z,64.51
2023-05-14T22:17:11.863Z,64.31
2023-05-14T22:19:41.803Z,65.36
2023-05-14T22:22:11.705Z,65.43
2023-05-14T22:24:41.616Z,65.50
2023-05-14T22:27:11.745Z,65.18
2023-05-14T22:29:41.745Z,65.43
2023-05-14T22:32:14.232Z,65.96
2023-05-14T22:34:44.381Z,65.60
2023-05-14T22:37:14.267Z,65.61
2023-05-14T22:39:44.294Z,65.91
2023-05-14T22:42:14.190Z,66.21
2023-05-14T22:44:44.121Z,65.92
2023-05-14T22:47:16.673Z,66.52
2023-05-14T22:49:46.586Z,66.50
2023-05-14T22:52:16.483Z,66.00
2023-05-14T22:54:46.765Z,66.51
2023-05-14T22:57:16.802Z,66.97
2023-05-14T22:59:46.776Z,66.99
2023-05-14T23:02:19.642Z,66.94
2023-05-14T23:04:49.633Z,66.95
2023-05-14T23:07:19.824Z,67.25
2023-05-14T23:09:49.777Z,68.28
2023-05-14T23:12:19.696Z,67.30
2023-05-14T23:14:49.669Z,67.83
2023-05-14T23:17:22.486Z,67.85
2023-05-14T23:19:52.559Z,67.36
2023-05-14T23:22:22.594Z,68.47
2023-05-14T23:24:52.571Z,69.76
2023-05-14T23:27:22.606Z,69.66
2023-05-14T23:29:52.579Z,69.82
2023-05-14T23:32:25.709Z,70.14
2023-05-14T23:34:55.766Z,70.62
2023-05-14T23:37:26.236Z,69.46
2023-05-14T23:39:56.391Z,69.00
2023-05-14T23:42:26.320Z,69.12
2023-05-14T23:44:56.183Z,69.10
2023-05-14T23:47:28.792Z,68.98
2023-05-14T23:49:58.721Z,69.51
2023-05-14T23:52:28.631Z,69.18
2023-05-14T23:54:58.525Z,68.42
2023-05-14T23:57:28.807Z,68.12
2023-05-14T23:59:58.906Z,68.87
